Time;durP1;ratioP1;P1;durP2;ratioP2;P2;SDS_P1;SDS_P2;PMS_P1;PMS_P2;Temp;Humidity;BMP_temperature;BMP_pressure;BME280_temperature;BME280_humidity;BME280_pressure;Samples;Min_cycle;Max_cycle;Signal;HPM_P1;HPM_P2
2022/05/09 00:00:12;;;;;;;4.87;1.50;;;8.10;99.90;;;;;;5048781;28;20044;-69
2022/05/09 00:02:37;;;;;;;5.50;1.80;;;8.10;99.90;;;;;;5035981;28;20094;-69
2022/05/09 00:05:04;;;;;;;6.63;1.70;;;8.10;99.90;;;;;;5035343;28;20482;-69
2022/05/09 00:07:30;;;;;;;6.80;2.33;;;8.00;99.90;;;;;;5013854;28;20127;-69
2022/05/09 00:09:55;;;;;;;7.07;1.73;;;8.00;99.90;;;;;;5017271;28;20211;-69
2022/05/09 00:12:21;;;;;;;3.00;1.63;;;8.00;99.90;;;;;;5028760;28;20523;-69
2022/05/09 00:14:47;;;;;;;7.60;1.95;;;8.00;99.90;;;;;;5043581;28;20552;-69
2022/05/09 00:17:12;;;;;;;4.23;1.90;;;8.00;99.90;;;;;;5039299;28;20049;-69
2022/05/09 00:19:38;;;;;;;5.87;1.60;;;7.90;99.90;;;;;;5038653;28;20288;-69
2022/05/09 00:22:04;;;;;;;3.00;1.60;;;7.90;99.90;;;;;;5020880;28;20048;-69
2022/05/09 00:24:32;;;;;;;3.97;1.73;;;7.90;99.90;;;;;;5005402;28;20178;-69
2022/05/09 00:26:58;;;;;;;4.50;1.70;;;7.90;99.90;;;;;;5041521;28;20083;-69
2022/05/09 00:29:24;;;;;;;4.87;2.27;;;7.90;99.90;;;;;;5043272;28;20493;-69
2022/05/09 00:31:52;;;;;;;7.15;2.08;;;7.90;99.90;;;;;;5039114;28;20538;-69
2022/05/09 00:34:21;;;;;;;6.78;2.00;;;7.90;99.90;;;;;;5042564;28;20156;-69
2022/05/09 00:39:23;;;;;;;5.28;1.80;;;7.80;99.90;;;;;;5043337;28;21264;-67
2022/05/09 00:41:48;;;;;;;9.10;2.28;;;7.80;99.90;;;;;;5026745;28;20033;-66
2022/05/09 00:44:17;;;;;;;7.47;2.08;;;7.70;99.90;;;;;;5022476;28;20102;-67
2022/05/09 00:46:47;;;;;;;6.03;2.00;;;7.70;99.90;;;;;;5015343;28;20056;-66
2022/05/09 00:49:34;;;;;;;4.40;1.50;;;7.70;99.90;;;;;;5017863;28;20064;-66
2022/05/09 00:52:14;;;;;;;3.85;1.77;;;7.70;99.90;;;;;;5003397;28;20051;-66
2022/05/09 00:55:03;;;;;;;7.85;1.98;;;7.60;99.90;;;;;;4988385;28;20394;-66
2022/05/09 00:57:38;;;;;;;5.57;1.90;;;7.60;99.90;;;;;;4997765;28;20512;-66
2022/05/09 01:00:12;;;;;;;3.55;2.05;;;7.60;99.90;;;;;;5025029;28;20426;-66
2022/05/09 01:02:43;;;;;;;7.70;2.00;;;7.60;99.90;;;;;;5021626;28;20041;-66
2022/05/09 01:05:12;;;;;;;3.45;1.88;;;7.60;99.90;;;;;;5016908;28;20085;-66
2022/05/09 01:07:39;;;;;;;3.75;2.13;;;7.50;99.90;;;;;;4989941;28;20478;-66
2022/05/09 01:10:07;;;;;;;6.55;1.77;;;7.50;99.90;;;;;;5000461;28;20083;-66
2022/05/09 01:12:36;;;;;;;8.10;2.50;;;7.40;99.90;;;;;;5017673;28;20045;-66
2022/05/09 01:15:09;;;;;;;5.90;1.77;;;7.40;99.90;;;;;;5026253;28;20081;-66
2022/05/09 01:17:39;;;;;;;5.32;1.92;;;7.40;99.90;;;;;;4984932;28;20049;-66
2022/05/09 01:20:09;;;;;;;2.72;1.75;;;7.40;99.90;;;;;;4995143;28;20065;-66
2022/05/09 01:22:37;;;;;;;3.75;1.92;;;7.40;99.90;;;;;;4992644;28;20041;-66
2022/05/09 01:25:09;;;;;;;3.72;1.90;;;7.40;99.90;;;;;;5014120;28;20053;-66
2022/05/09 01:27:38;;;;;;;6.78;2.45;;;7.40;99.90;;;;;;5023199;28;20041;-67
2022/05/09 01:30:19;;;;;;;4.38;1.80;;;7.40;99.90;;;;;;5025385;28;20080;-66
2022/05/09 01:33:06;;;;;;;3.83;2.15;;;7.40;99.90;;;;;;5000200;28;20049;-66
2022/05/09 01:35:38;;;;;;;7.57;2.45;;;7.40;99.90;;;;;;5003337;28;20122;-67
2022/05/09 01:38:30;;;;;;;4.18;1.40;;;7.40;99.90;;;;;;5020446;28;20045;-67
2022/05/09 01:40:56;;;;;;;5.32;2.08;;;7.30;99.90;;;;;;5017299;28;20042;-66
2022/05/09 01:43:39;;;;;;;6.25;2.10;;;7.30;99.90;;;;;;5012406;28;20038;-66
2022/05/09 01:46:17;;;;;;;4.30;1.80;;;7.30;99.90;;;;;;4987786;28;20080;-66
2022/05/09 01:51:28;;;;;;;3.03;1.83;;;7.30;99.90;;;;;;5016488;28;20076;-66
2022/05/09 01:53:54;;;;;;;6.70;2.30;;;7.30;99.90;;;;;;5004828;28;20037;-66
2022/05/09 01:56:26;;;;;;;6.57;2.70;;;7.30;99.90;;;;;;5021600;28;20052;-66
2022/05/09 01:58:56;;;;;;;5.15;1.83;;;7.30;99.90;;;;;;5025911;28;20406;-66
2022/05/09 02:01:23;;;;;;;5.55;2.05;;;7.30;99.90;;;;;;5018385;28;20147;-66
2022/05/09 02:03:50;;;;;;;5.28;1.85;;;7.30;99.90;;;;;;5007241;28;20167;-66
2022/05/09 02:06:16;;;;;;;3.70;1.98;;;7.30;99.90;;;;;;4988385;28;20505;-66
2022/05/09 02:08:42;;;;;;;5.38;2.00;;;7.30;99.90;;;;;;5007970;28;20049;-66
2022/05/09 02:11:08;;;;;;;4.53;2.03;;;7.30;99.90;;;;;;5000677;28;20037;-66
2022/05/09 02:13:33;;;;;;;4.35;1.85;;;7.30;99.90;;;;;;5006174;28;20091;-66
2022/05/09 02:16:00;;;;;;;3.10;2.07;;;7.30;99.90;;;;;;4990803;28;20466;-66
2022/05/09 02:18:25;;;;;;;6.35;2.53;;;7.20;99.90;;;;;;5004634;28;20306;-66
2022/05/09 02:20:51;;;;;;;3.93;1.90;;;7.20;99.90;;;;;;5026386;28;20037;-66
2022/05/09 02:23:17;;;;;;;6.17;2.87;;;7.20;99.90;;;;;;5023132;28;20506;-66
2022/05/09 02:25:45;;;;;;;5.18;1.58;;;7.20;99.90;;;;;;5017637;28;20041;-66
2022/05/09 02:28:11;;;;;;;5.38;2.10;;;7.20;99.90;;;;;;5012291;28;20068;-67
2022/05/09 02:30:40;;;;;;;5.40;1.88;;;7.20;99.90;;;;;;5002112;28;20196;-66
2022/05/09 02:33:07;;;;;;;5.88;2.05;;;7.20;99.90;;;;;;5017650;28;20049;-66
2022/05/09 02:35:34;;;;;;;7.05;2.42;;;7.10;99.90;;;;;;5011684;28;20077;-66
2022/05/09 02:38:00;;;;;;;;;;;7.10;99.90;;;;;;4987072;28;20087;-66
2022/05/09 02:40:26;;;;;;;4.97;2.30;;;7.10;99.90;;;;;;5017532;28;20450;-67
2022/05/09 02:42:57;;;;;;;5.32;2.22;;;7.10;99.90;;;;;;4994240;28;20175;-66
2022/05/09 02:45:23;;;;;;;6.03;1.75;;;7.10;99.90;;;;;;5002523;28;20049;-66
2022/05/09 02:47:49;;;;;;;4.53;1.88;;;7.00;99.90;;;;;;5021954;28;20037;-66
2022/05/09 02:50:15;;;;;;;6.35;2.28;;;7.00;99.90;;;;;;5025318;28;20095;-66
2022/05/09 02:52:42;;;;;;;8.77;2.03;;;6.90;99.90;;;;;;5019475;28;20315;-66
2022/05/09 02:55:08;;;;;;;;;;;6.90;99.90;;;;;;4979732;28;20033;-66
2022/05/09 02:57:35;;;;;;;6.78;2.45;;;6.90;99.90;;;;;;5022673;28;20242;-66
2022/05/09 03:00:01;;;;;;;;;;;6.80;99.90;;;;;;5018179;28;20034;-67
2022/05/09 03:02:27;;;;;;;5.88;2.42;;;6.80;99.90;;;;;;5020821;28;20251;-66
2022/05/09 03:04:53;;;;;;;8.73;2.00;;;6.90;99.90;;;;;;5023502;28;20045;-67
2022/05/09 03:07:20;;;;;;;4.13;2.20;;;6.90;99.90;;;;;;5018208;28;20048;-66
2022/05/09 03:09:48;;;;;;;4.88;1.98;;;6.90;99.90;;;;;;5005956;28;20036;-66
2022/05/09 03:12:14;;;;;;;6.70;2.65;;;6.80;99.90;;;;;;4994937;28;20045;-66
2022/05/09 03:14:40;;;;;;;;;;;6.80;99.90;;;;;;5021166;28;20147;-66
2022/05/09 03:17:07;;;;;;;5.95;2.92;;;6.80;99.90;;;;;;5004214;28;20039;-66
2022/05/09 03:19:33;;;;;;;5.68;2.00;;;6.80;99.90;;;;;;5011429;28;20260;-66
2022/05/09 03:21:59;;;;;;;7.30;2.53;;;6.80;99.90;;;;;;4993358;28;20238;-66
2022/05/09 03:24:25;;;;;;;4.53;2.55;;;6.70;99.90;;;;;;5017136;28;20037;-66
2022/05/09 03:26:51;;;;;;;4.30;1.90;;;6.80;99.90;;;;;;4997276;28;20041;-65
2022/05/09 03:29:19;;;;;;;8.55;2.42;;;6.70;99.90;;;;;;5023504;28;20347;-65
2022/05/09 03:31:47;;;;;;;8.63;2.80;;;6.70;99.90;;;;;;5021254;28;20466;-65
2022/05/09 03:34:14;;;;;;;7.20;3.53;;;6.70;99.90;;;;;;5019194;28;20045;-65
2022/05/09 03:36:40;;;;;;;3.40;1.98;;;6.70;99.90;;;;;;5016258;28;20037;-66
2022/05/09 03:39:07;;;;;;;5.45;2.60;;;6.70;99.90;;;;;;5009861;28;20431;-66
2022/05/09 03:41:32;;;;;;;;;;;6.70;99.90;;;;;;5019958;28;20069;-66
2022/05/09 03:43:58;;;;;;;4.45;2.17;;;6.70;99.90;;;;;;5017594;28;19972;-66
2022/05/09 03:46:24;;;;;;;5.82;2.40;;;6.70;99.90;;;;;;5014263;28;20076;-65
2022/05/09 03:48:50;;;;;;;8.93;2.90;;;6.60;99.90;;;;;;5007169;28;20041;-66
2022/05/09 03:51:15;;;;;;;9.30;2.70;;;6.70;99.90;;;;;;5017965;28;20037;-66
2022/05/09 03:53:41;;;;;;;4.77;2.23;;;6.70;99.90;;;;;;5025714;28;20137;-66
2022/05/09 03:56:07;;;;;;;8.25;2.90;;;6.60;99.90;;;;;;5021326;28;20041;-66
2022/05/09 03:58:34;;;;;;;9.18;2.63;;;6.60;99.90;;;;;;5005797;28;20124;-66
2022/05/09 04:01:00;;;;;;;5.88;2.33;;;6.60;99.90;;;;;;5006569;28;20033;-66
2022/05/09 04:03:26;;;;;;;4.80;2.47;;;6.60;99.90;;;;;;5019084;28;20040;-66
2022/05/09 04:05:52;;;;;;;5.53;2.50;;;6.70;99.90;;;;;;5001272;28;20102;-65
2022/05/09 04:08:20;;;;;;;4.97;2.40;;;6.60;99.90;;;;;;5020418;28;20183;-66
2022/05/09 04:10:47;;;;;;;5.13;2.25;;;6.60;99.90;;;;;;5025279;28;20063;-67
2022/05/09 04:13:13;;;;;;;;;;;6.60;99.90;;;;;;4999832;28;20064;-66
2022/05/09 04:18:32;;;;;;;8.63;3.00;;;6.60;99.90;;;;;;5020026;28;20069;-65
2022/05/09 04:20:58;;;;;;;6.15;3.10;;;6.60;99.90;;;;;;5020909;28;20038;-66
2022/05/09 04:23:23;;;;;;;4.77;2.57;;;6.60;99.90;;;;;;5028431;28;20088;-65
2022/05/09 04:25:49;;;;;;;5.47;2.50;;;6.60;99.90;;;;;;5016939;28;20303;-66
2022/05/09 04:28:22;;;;;;;4.10;2.15;;;6.70;99.90;;;;;;5033562;28;20045;-66
2022/05/09 04:30:48;;;;;;;4.40;2.50;;;6.70;99.90;;;;;;5016998;28;20522;-66
2022/05/09 04:33:14;;;;;;;5.45;2.67;;;6.70;99.90;;;;;;5018008;28;20160;-66
2022/05/09 04:35:41;;;;;;;7.53;2.55;;;6.70;99.90;;;;;;5012269;28;20117;-66
2022/05/09 04:38:11;;;;;;;8.75;3.45;;;6.70;99.90;;;;;;5009255;28;20042;-65
2022/05/09 04:40:37;;;;;;;7.57;2.53;;;6.80;99.90;;;;;;5015529;28;20046;-66
2022/05/09 04:43:04;;;;;;;5.10;2.70;;;6.80;99.90;;;;;;4985970;28;20513;-66
2022/05/09 04:45:30;;;;;;;;;;;6.90;99.90;;;;;;4997042;28;20077;-65
2022/05/09 04:47:56;;;;;;;6.25;2.80;;;6.80;99.90;;;;;;5002736;28;19987;-66
2022/05/09 04:50:25;;;;;;;5.95;2.47;;;6.90;99.90;;;;;;5005910;28;20131;-66
2022/05/09 04:52:51;;;;;;;7.55;2.50;;;7.00;99.90;;;;;;5020521;28;20125;-66
2022/05/09 04:55:17;;;;;;;4.25;2.55;;;7.00;99.90;;;;;;4986218;28;20137;-66
2022/05/09 04:57:44;;;;;;;5.85;2.78;;;7.00;99.90;;;;;;5025213;28;20486;-66
2022/05/09 05:00:11;;;;;;;;;;;7.10;99.90;;;;;;5017904;28;20079;-66
2022/05/09 05:02:36;;;;;;;6.97;2.47;;;7.10;99.90;;;;;;5023409;28;19925;-65
2022/05/09 05:05:04;;;;;;;8.30;2.63;;;7.20;99.90;;;;;;5025802;28;20046;-66
2022/05/09 05:07:29;;;;;;;7.05;2.80;;;7.20;99.90;;;;;;5019067;28;20041;-65
2022/05/09 05:09:55;;;;;;;7.10;2.37;;;7.30;99.90;;;;;;5027047;28;20047;-66
2022/05/09 05:12:21;;;;;;;4.80;2.27;;;7.40;99.90;;;;;;4991300;28;20045;-65
2022/05/09 05:14:46;;;;;;;8.30;3.13;;;7.40;99.90;;;;;;5014197;28;20041;-65
2022/05/09 05:17:12;;;;;;;8.23;3.00;;;7.40;99.90;;;;;;5027392;28;20041;-66
2022/05/09 05:19:40;;;;;;;6.37;2.97;;;7.50;99.90;;;;;;5025753;28;20120;-65
2022/05/09 05:22:07;;;;;;;4.57;2.67;;;7.50;99.90;;;;;;5024365;28;20653;-65
2022/05/09 05:24:34;;;;;;;4.80;2.47;;;7.60;99.90;;;;;;5032043;28;20036;-65
2022/05/09 05:26:59;;;;;;;6.05;2.90;;;7.60;99.90;;;;;;4992411;28;20037;-66
2022/05/09 05:29:26;;;;;;;7.50;3.17;;;7.70;99.90;;;;;;5004912;28;20560;-66
2022/05/09 05:31:51;;;;;;;11.77;3.00;;;7.70;99.90;;;;;;5020519;28;20293;-66
2022/05/09 05:34:17;;;;;;;6.47;2.23;;;7.70;99.90;;;;;;5025306;28;20517;-66
2022/05/09 05:36:43;;;;;;;6.40;2.57;;;7.80;99.90;;;;;;4997354;28;20124;-67
2022/05/09 05:39:13;;;;;;;5.93;2.70;;;7.80;99.90;;;;;;5010206;28;20060;-66
2022/05/09 05:41:39;;;;;;;9.48;3.35;;;7.90;99.90;;;;;;5007209;28;20438;-66
2022/05/09 05:44:08;;;;;;;8.00;2.80;;;7.90;99.90;;;;;;5022551;28;20065;-66
2022/05/09 05:46:34;;;;;;;5.40;2.55;;;8.00;99.90;;;;;;5024914;28;20811;-67
2022/05/09 05:49:00;;;;;;;10.33;2.43;;;8.00;99.90;;;;;;5007607;28;20056;-67
2022/05/09 05:51:26;;;;;;;6.57;2.70;;;8.10;99.90;;;;;;5013494;28;20029;-67
2022/05/09 05:53:54;;;;;;;7.15;2.75;;;8.10;99.90;;;;;;5008364;28;20602;-66
2022/05/09 05:56:20;;;;;;;4.82;2.17;;;8.20;99.90;;;;;;5021421;28;20176;-66
2022/05/09 05:58:45;;;;;;;4.97;2.38;;;8.20;99.90;;;;;;5020497;28;20144;-66
2022/05/09 06:01:11;;;;;;;4.80;2.40;;;8.30;99.90;;;;;;5005158;28;20038;-66
2022/05/09 06:03:36;;;;;;;6.70;2.50;;;8.30;99.90;;;;;;5022467;28;20083;-66
2022/05/09 06:06:02;;;;;;;8.37;2.30;;;8.30;99.90;;;;;;5004430;28;20044;-67
2022/05/09 06:08:28;;;;;;;5.30;2.60;;;8.40;99.90;;;;;;4998247;28;20335;-67
2022/05/09 06:10:53;;;;;;;5.10;2.90;;;8.40;99.90;;;;;;5006998;28;20037;-66
2022/05/09 06:13:19;;;;;;;4.90;2.77;;;8.50;99.90;;;;;;5024483;28;20037;-66
2022/05/09 06:15:45;;;;;;;6.23;2.80;;;8.60;99.90;;;;;;5002564;28;20033;-67
2022/05/09 06:18:15;;;;;;;4.27;2.40;;;8.60;99.90;;;;;;5022357;28;20037;-66
2022/05/09 06:20:43;;;;;;;5.50;3.00;;;8.70;99.90;;;;;;4995657;28;20038;-72
2022/05/09 06:23:12;;;;;;;6.32;3.15;;;8.80;99.90;;;;;;5022467;28;20477;-67
2022/05/09 06:25:38;;;;;;;9.65;3.03;;;8.80;99.90;;;;;;5025255;28;20077;-67
2022/05/09 06:28:05;;;;;;;6.18;2.55;;;8.90;99.90;;;;;;5026398;28;20099;-67
2022/05/09 06:30:31;;;;;;;10.23;3.13;;;9.00;99.90;;;;;;5021505;28;20068;-66
2022/05/09 06:32:58;;;;;;;8.27;3.30;;;9.10;99.90;;;;;;5021206;28;20052;-66
2022/05/09 06:35:26;;;;;;;9.57;3.53;;;9.10;99.90;;;;;;5029602;28;20029;-65
2022/05/09 06:37:57;;;;;;;8.35;2.83;;;9.20;99.90;;;;;;5013695;22;20204;-67
2022/05/09 06:40:23;;;;;;;7.20;3.28;;;9.30;99.90;;;;;;5053206;28;20063;-67
2022/05/09 06:42:51;;;;;;;6.90;2.40;;;9.40;99.90;;;;;;5059851;28;20473;-67
2022/05/09 06:45:17;;;;;;;6.13;2.60;;;9.50;99.90;;;;;;5045730;28;20051;-68
2022/05/09 06:47:47;;;;;;;7.65;3.13;;;9.60;99.90;;;;;;5047270;28;20044;-67
2022/05/09 06:50:13;;;;;;;5.97;2.88;;;9.70;99.90;;;;;;5043078;28;20079;-67
2022/05/09 06:52:39;;;;;;;7.20;2.22;;;9.80;99.90;;;;;;5046783;28;20166;-67
2022/05/09 06:55:05;;;;;;;4.23;2.30;;;9.90;99.90;;;;;;5061321;28;20480;-67
2022/05/09 06:57:33;;;;;;;9.35;2.80;;;10.00;99.90;;;;;;5056788;28;20797;-67
2022/05/09 06:59:58;;;;;;;8.65;2.80;;;10.10;99.90;;;;;;5056419;28;20044;-67
2022/05/09 07:02:24;;;;;;;5.17;2.23;;;10.20;99.90;;;;;;5059683;28;20040;-67
2022/05/09 07:04:49;;;;;;;4.87;2.33;;;10.30;99.90;;;;;;5062324;28;20571;-67
2022/05/09 07:07:15;;;;;;;6.00;2.40;;;10.40;99.90;;;;;;5046857;28;20377;-67
2022/05/09 07:09:40;;;;;;;7.00;2.87;;;10.50;99.90;;;;;;5059855;28;20060;-67
2022/05/09 07:12:07;;;;;;;5.30;2.37;;;10.60;99.90;;;;;;5037711;28;20095;-67
2022/05/09 07:14:32;;;;;;;4.85;2.28;;;10.70;99.90;;;;;;5045757;28;20091;-67
2022/05/09 07:16:58;;;;;;;7.90;2.80;;;10.80;99.90;;;;;;5064236;28;20090;-67
2022/05/09 07:19:24;;;;;;;7.87;2.73;;;10.90;99.90;;;;;;5064347;28;20416;-67
2022/05/09 07:21:49;;;;;;;6.50;2.33;;;10.90;99.90;;;;;;5065810;28;20086;-67
2022/05/09 07:24:15;;;;;;;7.60;2.67;;;11.10;99.90;;;;;;5055129;28;20044;-66
2022/05/09 07:26:41;;;;;;;5.07;2.20;;;11.10;99.90;;;;;;5070251;28;20084;-66
2022/05/09 07:29:07;;;;;;;;;;;11.30;99.90;;;;;;5049830;28;20048;-66
2022/05/09 07:31:33;;;;;;;6.03;2.35;;;11.40;99.90;;;;;;5069816;28;19916;-66
2022/05/09 07:33:59;;;;;;;5.45;2.33;;;11.50;99.90;;;;;;5068604;28;20361;-66
2022/05/09 07:36:24;;;;;;;5.10;2.60;;;11.60;99.90;;;;;;5068192;28;20047;-66
2022/05/09 07:38:51;;;;;;;5.33;2.30;;;11.70;99.90;;;;;;5071172;28;20123;-66
2022/05/09 07:41:16;;;;;;;4.60;1.98;;;11.80;99.90;;;;;;5071061;28;20028;-67
2022/05/09 07:43:42;;;;;;;5.27;2.10;;;11.80;99.90;;;;;;5071543;28;20488;-67
2022/05/09 07:46:07;;;;;;;4.57;2.10;;;11.90;99.90;;;;;;5074393;28;20044;-67
2022/05/09 07:48:33;;;;;;;9.67;2.07;;;12.00;99.90;;;;;;5067222;28;20485;-67
2022/05/09 07:50:59;;;;;;;4.80;1.90;;;12.10;99.90;;;;;;5070040;28;20343;-67
2022/05/09 07:53:29;;;;;;;4.47;2.00;;;12.20;99.90;;;;;;5055653;28;20139;-67
2022/05/09 07:55:55;;;;;;;6.53;2.30;;;12.20;99.90;;;;;;5075703;28;20040;-67
2022/05/09 07:58:22;;;;;;;7.03;2.43;;;12.40;99.90;;;;;;5070900;28;20032;-67
2022/05/09 08:00:48;;;;;;;3.67;2.00;;;12.50;99.90;;;;;;5054445;28;20067;-67
2022/05/09 08:03:22;;;;;;;5.20;1.75;;;12.50;99.90;;;;;;5067267;28;20038;-67
2022/05/09 08:05:53;;;;;;;7.00;2.00;;;12.60;99.90;;;;;;5071112;28;20048;-67
2022/05/09 08:08:19;;;;;;;4.55;2.00;;;12.70;99.90;;;;;;5050109;28;20040;-67
2022/05/09 08:10:45;;;;;;;4.43;1.55;;;12.90;99.90;;;;;;5052519;28;20040;-67
2022/05/09 08:13:13;;;;;;;5.72;2.08;;;13.00;99.90;;;;;;5067771;28;20135;-67
2022/05/09 08:15:40;;;;;;;6.97;1.92;;;13.00;99.90;;;;;;5067527;28;20051;-67
2022/05/09 08:18:06;;;;;;;6.45;2.25;;;13.10;99.90;;;;;;5069960;28;20041;-67
2022/05/09 08:20:34;;;;;;;5.35;2.08;;;13.20;99.90;;;;;;5069680;28;20463;-67
2022/05/09 08:23:00;;;;;;;3.80;2.00;;;13.30;99.90;;;;;;5074767;28;20381;-66
2022/05/09 08:25:27;;;;;;;6.13;2.45;;;13.40;99.90;;;;;;5048613;28;20503;-66
2022/05/09 08:27:52;;;;;;;7.65;2.63;;;13.50;99.90;;;;;;5066252;28;20051;-67
2022/05/09 08:30:18;;;;;;;3.80;1.57;;;13.60;99.90;;;;;;5049685;28;20048;-66
2022/05/09 08:32:44;;;;;;;4.75;2.20;;;13.70;99.90;;;;;;5067933;28;20119;-67
2022/05/09 08:35:10;;;;;;;7.63;2.08;;;13.80;99.90;;;;;;5069481;28;20047;-67
2022/05/09 08:37:37;;;;;;;5.88;2.50;;;13.90;99.90;;;;;;5055462;28;20040;-66
2022/05/09 08:40:04;;;;;;;5.88;2.13;;;14.10;99.90;;;;;;5068602;28;20043;-66
2022/05/09 08:42:43;;;;;;;5.53;1.55;;;14.20;99.90;;;;;;5070966;28;20052;-66
2022/05/09 08:45:30;;;;;;;6.10;2.00;;;14.20;99.90;;;;;;5069931;28;20116;-69
2022/05/09 08:48:22;;;;;;;5.43;1.80;;;14.30;99.90;;;;;;5050638;28;20071;-65
2022/05/09 08:50:56;;;;;;;5.38;1.50;;;14.50;99.90;;;;;;5069779;28;20040;-65
2022/05/09 08:53:24;;;;;;;3.45;1.45;;;14.60;99.90;;;;;;5071157;28;20201;-66
2022/05/09 08:55:52;;;;;;;4.50;1.55;;;14.70;99.90;;;;;;5046860;28;20062;-65
2022/05/09 08:58:49;;;;;;;3.85;1.60;;;14.80;99.90;;;;;;5066894;28;20055;-66
2022/05/09 09:01:48;;;;;;;3.70;1.30;;;14.90;99.90;;;;;;5051297;28;20043;-66
2022/05/09 09:04:32;;;;;;;6.68;2.20;;;15.00;99.90;;;;;;5048346;28;20044;-66
2022/05/09 09:07:12;;;;;;;4.93;2.40;;;15.20;99.90;;;;;;5068315;28;20080;-65
2022/05/09 09:09:56;;;;;;;5.53;1.35;;;15.30;99.90;;;;;;5063615;28;20499;-66
2022/05/09 09:12:33;;;;;;;4.65;1.70;;;15.40;99.90;;;;;;5057152;28;20128;-65
2022/05/09 09:15:05;;;;;;;4.88;1.83;;;15.50;99.90;;;;;;5064668;28;20529;-65
2022/05/09 09:18:15;;;;;;;6.38;2.03;;;15.60;99.90;;;;;;5066439;28;20500;-66
2022/05/09 09:21:01;;;;;;;6.10;1.48;;;15.80;99.90;;;;;;5063011;28;20029;-70
2022/05/09 09:23:47;;;;;;;4.93;1.55;;;15.90;99.40;;;;;;5055114;28;20125;-65
2022/05/09 09:26:28;;;;;;;2.85;1.25;;;16.00;95.20;;;;;;5041780;28;20116;-66
2022/05/09 09:29:19;;;;;;;2.13;0.75;;;16.20;94.50;;;;;;5048345;28;20083;-66
2022/05/09 09:31:48;;;;;;;2.85;1.25;;;16.30;93.50;;;;;;5064890;28;20473;-66
2022/05/09 09:34:24;;;;;;;3.20;1.00;;;16.40;94.10;;;;;;5071746;28;20040;-66
2022/05/09 09:37:02;;;;;;;1.92;1.00;;;16.50;92.80;;;;;;5054970;28;20123;-65
2022/05/09 09:39:27;;;;;;;4.93;1.42;;;16.60;79.30;;;;;;5046803;28;20382;-65
2022/05/09 09:41:55;;;;;;;3.30;1.23;;;16.70;90.00;;;;;;5057523;28;20067;-65
2022/05/09 09:44:27;;;;;;;2.15;1.00;;;16.90;85.00;;;;;;5057019;28;20119;-66
2022/05/09 09:47:07;;;;;;;2.22;1.10;;;17.00;81.70;;;;;;5069198;28;20032;-66
2022/05/09 09:49:42;;;;;;;2.35;1.08;;;17.10;78.00;;;;;;5065121;28;20397;-65
2022/05/09 09:52:21;;;;;;;3.03;1.00;;;17.10;71.30;;;;;;5040047;28;20045;-66
2022/05/09 09:55:06;;;;;;;4.63;1.70;;;17.20;71.50;;;;;;5047914;28;20119;-66
2022/05/09 09:57:37;;;;;;;3.15;0.98;;;17.30;69.00;;;;;;5065439;28;20131;-66
2022/05/09 10:00:19;;;;;;;2.75;1.10;;;17.40;69.80;;;;;;5055703;28;20603;-66
2022/05/09 10:02:46;;;;;;;6.97;1.70;;;17.50;62.60;;;;;;5069983;28;20451;-66
2022/05/09 10:05:18;;;;;;;2.17;0.90;;;17.50;65.70;;;;;;5070865;28;20283;-66
2022/05/09 10:07:44;;;;;;;4.47;1.50;;;17.60;65.50;;;;;;5048650;28;20036;-66
2022/05/09 10:10:17;;;;;;;;;;;17.70;67.40;;;;;;5070554;28;20050;-66
2022/05/09 10:12:46;;;;;;;3.17;1.08;;;17.90;64.20;;;;;;5049989;28;19920;-66
2022/05/09 10:15:39;;;;;;;4.13;1.77;;;18.00;66.50;;;;;;5066050;28;20086;-66
2022/05/09 10:18:23;;;;;;;4.03;1.33;;;18.10;61.30;;;;;;5051259;28;20168;-66
2022/05/09 10:20:51;;;;;;;3.65;1.42;;;18.10;54.40;;;;;;5047420;28;20388;-66
2022/05/09 10:26:30;;;;;;;8.40;1.30;;;18.30;56.40;;;;;;5065909;28;20049;-67
2022/05/09 10:28:59;;;;;;;4.32;1.30;;;18.40;58.60;;;;;;5062908;28;20044;-67
2022/05/09 10:31:47;;;;;;;1.17;0.70;;;18.50;59.30;;;;;;5061533;28;20048;-67
2022/05/09 10:34:32;;;;;;;3.40;1.30;;;18.60;58.90;;;;;;5061798;28;20044;-67
2022/05/09 10:37:04;;;;;;;3.40;1.10;;;18.70;59.00;;;;;;5067101;28;20114;-67
2022/05/09 10:39:38;;;;;;;2.13;1.15;;;18.90;59.20;;;;;;5055264;28;20036;-67
2022/05/09 10:42:07;;;;;;;6.40;1.13;;;19.00;57.70;;;;;;5061056;28;20041;-67
2022/05/09 10:45:21;;;;;;;3.42;1.05;;;19.10;56.60;;;;;;5064736;28;20162;-67
2022/05/09 10:48:08;;;;;;;3.85;1.02;;;19.20;52.00;;;;;;5023575;28;20070;-67
2022/05/09 10:50:38;;;;;;;3.22;1.08;;;19.30;51.30;;;;;;5062511;28;20087;-67
2022/05/09 10:53:14;;;;;;;5.10;1.15;;;19.30;54.20;;;;;;5062518;28;20044;-67
2022/05/09 10:55:45;;;;;;;4.25;1.00;;;19.40;55.10;;;;;;5068258;28;20036;-67
2022/05/09 10:58:26;;;;;;;2.83;1.15;;;19.50;55.40;;;;;;5062777;28;20117;-67
2022/05/09 11:00:57;;;;;;;3.83;1.23;;;19.60;55.60;;;;;;5064123;28;20439;-67
2022/05/09 11:03:35;;;;;;;3.13;1.00;;;19.80;51.70;;;;;;5063309;28;20047;-67
2022/05/09 11:06:24;;;;;;;3.28;1.15;;;19.80;52.10;;;;;;5053719;28;20131;-68
2022/05/09 11:09:21;;;;;;;6.88;1.27;;;19.90;51.30;;;;;;5045452;28;20055;-68
2022/05/09 11:11:56;;;;;;;2.15;0.82;;;19.90;49.10;;;;;;5061507;28;20044;-68
2022/05/09 11:14:34;;;;;;;1.92;1.02;;;20.00;52.00;;;;;;5043088;28;20044;-68
2022/05/09 11:17:12;;;;;;;4.00;0.90;;;20.10;52.40;;;;;;5047346;28;20120;-68
2022/05/09 11:20:20;;;;;;;2.55;1.13;;;20.20;51.60;;;;;;5066884;28;20037;-68
2022/05/09 11:23:06;;;;;;;3.42;1.20;;;20.30;46.40;;;;;;5009544;28;20273;-68
2022/05/09 11:25:42;;;;;;;3.08;1.33;;;20.30;49.90;;;;;;5050385;28;20393;-68
2022/05/09 11:28:17;;;;;;;;;;;20.40;51.10;;;;;;5062603;28;20037;-68
2022/05/09 11:30:48;;;;;;;3.42;0.93;;;20.50;50.70;;;;;;5063756;28;19939;-66
2022/05/09 11:33:44;;;;;;;2.60;1.15;;;20.60;51.40;;;;;;5063770;28;20036;-67
2022/05/09 11:36:32;;;;;;;6.53;1.00;;;20.70;47.10;;;;;;5058782;28;20037;-67
2022/05/09 11:39:36;;;;;;;5.22;1.20;;;20.70;50.50;;;;;;5051710;28;20067;-67
2022/05/09 11:45:36;;;;;;;4.07;1.17;;;20.90;49.80;;;;;;5062555;28;20037;-67
2022/05/09 11:48:32;;;;;;;1.58;0.80;;;21.10;49.10;;;;;;5064848;28;20052;-67
2022/05/09 11:51:18;;;;;;;5.32;1.52;;;21.20;49.70;;;;;;5059193;28;20119;-67
2022/05/09 11:53:50;;;;;;;2.72;1.08;;;21.30;49.40;;;;;;5068072;28;20448;-67
2022/05/09 11:56:16;;;;;;;4.13;1.33;;;21.50;48.10;;;;;;5060808;28;20493;-67
2022/05/09 11:58:43;;;;;;;2.95;1.20;;;21.40;48.00;;;;;;5060462;28;20143;-67
2022/05/09 12:01:09;;;;;;;4.00;1.02;;;21.50;48.10;;;;;;5033439;28;20041;-67
2022/05/09 12:03:41;;;;;;;3.08;0.98;;;21.60;48.00;;;;;;5064306;28;20117;-67
2022/05/09 12:06:27;;;;;;;4.40;0.90;;;21.70;47.30;;;;;;5060612;28;20051;-67
2022/05/09 12:08:56;;;;;;;3.00;1.23;;;21.80;48.00;;;;;;5066070;28;20044;-67
2022/05/09 12:11:29;;;;;;;1.70;0.88;;;21.80;48.20;;;;;;5061551;28;20041;-67
2022/05/09 12:13:57;;;;;;;3.75;0.90;;;22.00;48.70;;;;;;5045083;28;20074;-68
2022/05/09 12:16:35;;;;;;;2.47;0.90;;;22.00;46.20;;;;;;5070260;28;20361;-67
2022/05/09 12:19:05;;;;;;;4.85;1.15;;;22.00;47.00;;;;;;5062916;28;20097;-67
2022/05/09 12:21:37;;;;;;;6.75;1.67;;;22.10;46.80;;;;;;5060135;28;20033;-67
2022/05/09 12:24:14;;;;;;;6.30;1.17;;;22.20;47.30;;;;;;5066123;28;20072;-67
2022/05/09 12:26:44;;;;;;;1.75;0.80;;;22.40;47.00;;;;;;5065721;28;20066;-67
2022/05/09 12:29:12;;;;;;;2.90;1.20;;;22.50;47.80;;;;;;5065289;28;20109;-67
2022/05/09 12:31:57;;;;;;;3.35;1.00;;;22.60;46.70;;;;;;5059121;28;20178;-67
2022/05/09 12:34:38;;;;;;;5.22;1.15;;;22.70;44.40;;;;;;5056929;28;20058;-67
2022/05/09 12:37:04;;;;;;;2.95;1.20;;;22.70;45.20;;;;;;5055118;28;20044;-68
2022/05/09 12:39:39;;;;;;;3.40;1.17;;;22.80;44.60;;;;;;5051575;22;20044;-71
2022/05/09 12:42:12;;;;;;;3.10;0.95;;;22.80;44.50;;;;;;5033836;28;20045;-71
2022/05/09 12:44:44;;;;;;;2.95;1.20;;;22.90;46.00;;;;;;5046125;28;20421;-71
2022/05/09 12:47:19;;;;;;;3.60;1.05;;;23.00;44.40;;;;;;5052124;28;20887;-71
2022/05/09 12:49:51;;;;;;;4.47;1.38;;;23.00;42.70;;;;;;5062594;28;20148;-71
2022/05/09 12:52:24;;;;;;;3.08;1.08;;;22.90;43.40;;;;;;5046195;28;20217;-71
2022/05/09 12:57:38;;;;;;;2.72;0.90;;;22.80;42.40;;;;;;5062874;28;20117;-71
2022/05/09 13:00:29;;;;;;;4.28;1.08;;;22.80;43.70;;;;;;5058622;28;20068;-71
2022/05/09 13:03:06;;;;;;;2.28;0.90;;;22.90;43.10;;;;;;5072207;28;20132;-71
2022/05/09 13:05:39;;;;;;;3.33;1.10;;;23.00;41.00;;;;;;5062266;28;20142;-71
2022/05/09 13:08:07;;;;;;;4.97;1.27;;;23.10;43.20;;;;;;5042809;28;20443;-71
2022/05/09 13:10:45;;;;;;;3.72;1.15;;;23.10;42.70;;;;;;5053008;28;20412;-71
2022/05/09 13:13:23;;;;;;;1.95;0.90;;;23.30;41.20;;;;;;5077616;28;20198;-71
2022/05/09 13:15:49;;;;;;;2.22;0.85;;;23.30;41.70;;;;;;5062085;28;20044;-71
2022/05/09 13:18:18;;;;;;;;;;;23.50;42.10;;;;;;5056848;28;20055;-71
2022/05/09 13:20:57;;;;;;;4.57;1.17;;;23.50;40.50;;;;;;5080045;28;19924;-71
2022/05/09 13:23:33;;;;;;;2.47;0.90;;;23.60;42.30;;;;;;5086422;28;20039;-71
2022/05/09 13:26:03;;;;;;;2.55;0.90;;;23.70;41.90;;;;;;5082620;28;20055;-71
2022/05/09 13:28:41;;;;;;;4.32;0.70;;;23.70;42.30;;;;;;5095485;28;20112;-72
2022/05/09 13:31:06;;;;;;;4.57;1.00;;;23.70;41.00;;;;;;5085458;28;20046;-71